logo
Search for airport 
image banner adimage banner adimage banner ad
image banner ad

ESMALA - Mala

Located in , Sweden

ICAO - ESMALA, IATA -

Data provided by Airmate  

General information

Coordinates: N65°12'54" E18°40'50"
Elevation is 1053 feet MSL.
Magnetic variation is 8° East
View others Airports in Västerbottens län

Operational data

Special qualification required
Current time UTC:
Current local time:
Weather at : ESNX - Arvidsjaur ( 50 km )
METAR: ESNX 130520Z AUTO 26005KT 9999 FEW150/// 05/02 Q1001
View NOTAMs / SUP AIP / TFR affecting this airport [VIEW]
Communications frequencies: [VIEW]

Runways:

Airport contact information

Address: Sweden

Satellite view of ESMALA